Time;durP1;ratioP1;P1;durP2;ratioP2;P2;SDS_P1;SDS_P2;PMS_P1;PMS_P2;Temp;Humidity;BMP_temperature;BMP_pressure;BME280_temperature;BME280_humidity;BME280_pressure;Samples;Min_cycle;Max_cycle;Signal;HPM_P1;HPM_P2
2021/03/02 00:01:10;;;;;;;31.77;17.70;;;;;;;2.63;75.63;98059.03;5039530;28;20091;-66
2021/03/02 00:03:38;;;;;;;29.17;16.92;;;;;;;2.70;75.80;98061.25;5036267;28;20051;-66
2021/03/02 00:06:06;;;;;;;27.85;15.93;;;;;;;2.51;76.10;98064.84;5030042;28;20064;-66
2021/03/02 00:08:35;;;;;;;27.58;17.27;;;;;;;2.30;77.06;98056.53;5056000;28;20041;-67
2021/03/02 00:11:02;;;;;;;29.08;17.95;;;;;;;2.20;76.83;98055.38;5043346;28;20078;-66
2021/03/02 00:13:29;;;;;;;27.65;17.08;;;;;;;2.24;76.86;98065.44;5041206;28;20063;-66
2021/03/02 00:15:58;;;;;;;32.08;17.90;;;;;;;1.89;77.21;98061.34;5054995;28;20048;-66
2021/03/02 00:18:28;;;;;;;30.85;17.15;;;;;;;2.06;77.59;98068.16;5039799;28;20044;-67
2021/03/02 00:21:02;;;;;;;30.63;17.45;;;;;;;1.87;77.85;98058.03;5037336;28;20048;-66
2021/03/02 00:23:37;;;;;;;30.70;18.48;;;;;;;1.32;79.10;98062.50;5055751;28;20460;-66
2021/03/02 00:26:05;;;;;;;30.33;19.00;;;;;;;1.36;79.25;98061.44;5056480;28;20141;-66
2021/03/02 00:28:32;;;;;;;32.10;18.30;;;;;;;1.48;78.87;98057.41;5054338;28;20056;-66
2021/03/02 00:30:59;;;;;;;33.58;19.10;;;;;;;1.40;78.59;98072.38;5054491;28;20416;-66
2021/03/02 00:33:26;;;;;;;32.47;19.17;;;;;;;1.55;78.02;98073.34;5056074;28;20069;-66
2021/03/02 00:35:53;;;;;;;35.38;19.85;;;;;;;1.44;78.51;98073.88;5054935;28;20068;-69
2021/03/02 00:38:19;;;;;;;37.92;20.13;;;;;;;1.17;78.83;98064.09;5058584;28;20473;-66
2021/03/02 00:40:45;;;;;;;32.67;18.77;;;;;;;1.21;78.64;98075.03;5056050;28;20408;-67
2021/03/02 00:43:12;;;;;;;35.78;18.83;;;;;;;1.31;79.37;98070.25;5030699;28;20055;-66
2021/03/02 00:45:38;;;;;;;35.97;19.10;;;;;;;1.10;79.65;98072.13;5040493;28;20371;-66
2021/03/02 00:48:05;;;;;;;32.00;19.00;;;;;;;1.19;80.26;98066.59;5036206;28;20076;-66
2021/03/02 00:50:31;;;;;;;31.85;18.02;;;;;;;1.34;79.54;98070.94;5054110;28;20045;-67
2021/03/02 00:52:58;;;;;;;32.72;17.65;;;;;;;1.18;80.46;98075.16;5043052;28;20404;-66
2021/03/02 00:55:24;;;;;;;32.00;17.77;;;;;;;1.06;80.85;98066.34;5055800;28;20037;-66
2021/03/02 00:57:52;;;;;;;35.58;19.10;;;;;;;1.17;80.59;98073.53;5058072;28;20131;-66
2021/03/02 01:00:24;;;;;;;27.58;17.10;;;;;;;1.21;80.32;98055.31;5019901;28;20140;-66
2021/03/02 01:02:52;;;;;;;33.10;18.27;;;;;;;1.01;79.77;98061.44;5036513;28;20048;-65
2021/03/02 01:05:18;;;;;;;30.40;17.45;;;;;;;0.86;80.41;98059.63;5056261;28;20044;-66
2021/03/02 01:07:45;;;;;;;30.20;18.17;;;;;;;0.89;80.67;98056.06;5053888;28;20045;-66
2021/03/02 01:10:17;;;;;;;34.92;19.67;;;;;;;0.94;79.96;98054.94;5055873;28;20041;-66
2021/03/02 01:12:49;;;;;;;35.72;17.90;;;;;;;0.94;80.13;98057.50;5055533;28;20423;-66
2021/03/02 01:15:16;;;;;;;33.97;18.93;;;;;;;0.99;80.03;98065.78;5037993;28;20538;-67
2021/03/02 01:17:43;;;;;;;30.77;18.80;;;;;;;0.81;80.47;98054.72;5041000;28;20484;-67
2021/03/02 01:20:10;;;;;;;32.20;18.65;;;;;;;1.11;79.40;98053.31;5038607;28;20063;-67
2021/03/02 01:22:38;;;;;;;35.05;20.25;;;;;;;0.80;80.10;98044.53;5039957;28;20048;-66
2021/03/02 01:25:10;;;;;;;37.40;21.50;;;;;;;0.68;81.36;98043.41;5039613;28;20532;-67
2021/03/02 01:27:37;;;;;;;35.72;18.98;;;;;;;0.70;79.50;98040.75;5052058;28;20400;-67
2021/03/02 01:30:10;;;;;;;34.33;19.10;;;;;;;0.43;81.07;98043.72;5055229;28;20159;-65
2021/03/02 01:32:36;;;;;;;34.55;19.52;;;;;;;0.32;82.23;98049.34;5027580;28;20139;-67
2021/03/02 01:35:11;;;;;;;37.95;20.08;;;;;;;0.18;82.06;98047.41;5055129;28;20453;-66
2021/03/02 01:37:38;;;;;;;35.63;20.02;;;;;;;0.17;81.93;98045.75;5054588;28;20110;-67
2021/03/02 01:40:13;;;;;;;32.85;18.45;;;;;;;0.01;81.37;98033.72;5053582;28;20068;-66
2021/03/02 01:42:40;;;;;;;34.60;19.75;;;;;;;-0.11;81.45;98038.47;5047558;28;20324;-66
2021/03/02 01:45:09;;;;;;;40.10;19.42;;;;;;;-0.11;81.55;98047.88;5035957;28;20044;-66
2021/03/02 01:47:36;;;;;;;36.45;20.00;;;;;;;0.08;80.97;98043.59;5057114;28;20045;-66
2021/03/02 01:50:05;;;;;;;31.20;18.80;;;;;;;0.11;81.88;98040.91;5037291;28;20527;-66
2021/03/02 01:52:32;;;;;;;34.97;20.58;;;;;;;0.06;81.32;98040.28;5033898;28;20045;-66
2021/03/02 01:54:58;;;;;;;31.67;18.73;;;;;;;0.31;81.09;98028.91;5053993;28;20124;-67
2021/03/02 01:57:25;;;;;;;38.47;20.27;;;;;;;-0.09;81.15;98040.97;5039213;28;20107;-66
2021/03/02 01:59:51;;;;;;;36.25;20.10;;;;;;;-0.36;83.37;98036.19;5044468;28;20033;-66
2021/03/02 02:02:26;;;;;;;45.15;22.05;;;;;;;-0.54;81.07;98027.56;5058463;28;20046;-66
2021/03/02 02:04:56;;;;;;;37.58;20.67;;;;;;;-0.80;83.10;98031.25;5049477;28;20061;-66
2021/03/02 02:07:37;;;;;;;38.90;19.98;;;;;;;-0.63;83.25;98039.03;5057760;28;20044;-66
2021/03/02 02:10:07;;;;;;;35.00;17.67;;;;;;;-0.69;81.20;98039.28;5050940;28;20057;-66
2021/03/02 02:13:07;;;;;;;33.70;17.38;;;;;;;-0.75;83.42;98039.56;5053957;28;20036;-66
2021/03/02 02:15:35;;;;;;;41.83;20.83;;;;;;;-1.04;82.52;98044.16;5044330;28;20447;-66
2021/03/02 02:18:09;;;;;;;38.95;19.48;;;;;;;-1.10;82.71;98039.31;5054209;28;20049;-65
2021/03/02 02:20:48;;;;;;;34.47;18.83;;;;;;;-1.10;83.33;98035.88;5042753;28;20075;-66
2021/03/02 02:23:14;;;;;;;38.95;19.02;;;;;;;-1.26;83.80;98038.25;5052163;28;20032;-65
2021/03/02 02:25:48;;;;;;;39.55;21.90;;;;;;;-1.13;84.84;98030.91;5057852;28;20110;-65
2021/03/02 02:28:17;;;;;;;36.78;17.55;;;;;;;-1.14;83.19;98019.88;5057958;28;20040;-66
2021/03/02 02:30:47;;;;;;;37.70;17.55;;;;;;;-1.16;82.84;98039.56;5057651;28;20260;-66
2021/03/02 02:33:15;;;;;;;38.10;18.55;;;;;;;-1.13;83.00;98028.38;5051289;28;20144;-67
2021/03/02 02:35:43;;;;;;;;;;;;;;;-1.12;83.83;98035.97;5057493;28;20495;-66
2021/03/02 02:38:13;;;;;;;38.17;19.35;;;;;;;-0.91;82.80;98033.41;5057652;28;20419;-66
2021/03/02 02:40:41;;;;;;;39.22;20.10;;;;;;;-0.80;82.42;98028.69;5056645;28;20036;-66
2021/03/02 02:43:09;;;;;;;34.53;19.95;;;;;;;-0.58;84.66;98022.66;5039808;28;20049;-66
2021/03/02 02:45:36;;;;;;;40.78;20.92;;;;;;;-0.78;83.90;98024.34;5053406;28;20570;-66
2021/03/02 02:48:02;;;;;;;39.23;20.63;;;;;;;-0.73;84.43;98019.84;5040055;28;20048;-66
2021/03/02 02:50:29;;;;;;;42.47;21.53;;;;;;;-0.83;83.83;98028.81;5058468;28;20095;-67
2021/03/02 02:52:56;;;;;;;40.40;22.35;;;;;;;-0.56;85.03;98036.22;5038664;28;20372;-66
2021/03/02 02:55:35;;;;;;;46.53;22.63;;;;;;;-1.13;84.88;98029.19;5040360;28;20393;-66
2021/03/02 02:58:05;;;;;;;42.10;21.55;;;;;;;-1.16;86.20;98037.00;5056281;28;20393;-67
2021/03/02 03:00:34;;;;;;;41.03;19.73;;;;;;;-1.27;84.82;98041.69;5057174;28;20591;-65
2021/03/02 03:03:04;;;;;;;43.08;21.63;;;;;;;-1.09;85.47;98037.56;5058934;28;20063;-66
2021/03/02 03:05:32;;;;;;;37.90;19.35;;;;;;;-0.98;83.62;98037.13;5052235;28;20048;-66
2021/03/02 03:08:02;;;;;;;36.80;20.92;;;;;;;-1.19;84.61;98034.53;5059649;28;20036;-66
2021/03/02 03:10:30;;;;;;;43.05;21.63;;;;;;;-1.38;84.80;98048.94;5053714;28;20075;-66
2021/03/02 03:13:04;;;;;;;;;;;;;;;-1.23;86.05;98043.22;5056321;28;20055;-66
2021/03/02 03:15:32;;;;;;;41.78;22.08;;;;;;;-1.15;84.51;98046.31;5056959;28;19921;-66
2021/03/02 03:18:02;;;;;;;50.05;23.38;;;;;;;-1.35;84.10;98043.75;5058318;28;20044;-66
2021/03/02 03:20:29;;;;;;;44.53;22.58;;;;;;;-1.47;83.64;98035.66;5024673;28;20064;-66
2021/03/02 03:22:57;;;;;;;49.15;23.98;;;;;;;-1.41;83.84;98031.22;5058293;28;20978;-66
2021/03/02 03:25:23;;;;;;;;;;;;;;;-1.75;85.66;98038.44;5056763;28;20044;-66
2021/03/02 03:27:53;;;;;;;50.67;24.27;;;;;;;-1.66;84.52;98040.63;5057972;28;19928;-66
2021/03/02 03:30:21;;;;;;;47.30;25.30;;;;;;;-1.69;86.30;98043.31;5053109;28;20047;-66
2021/03/02 03:32:54;;;;;;;45.05;22.58;;;;;;;-1.55;83.69;98050.44;5040757;28;20560;-66
2021/03/02 03:35:23;;;;;;;53.17;24.02;;;;;;;-1.54;83.87;98057.22;5037892;28;20037;-66
2021/03/02 03:37:50;;;;;;;66.90;31.52;;;;;;;-1.64;85.59;98054.19;5053722;28;20628;-66
2021/03/02 03:40:16;;;;;;;46.47;23.98;;;;;;;-1.36;84.84;98042.06;5054625;28;20404;-66
2021/03/02 03:42:42;;;;;;;49.80;23.70;;;;;;;-1.46;83.63;98045.00;5053381;28;20063;-66
2021/03/02 03:45:09;;;;;;;44.58;21.48;;;;;;;-1.67;84.85;98043.28;5040172;28;20053;-66
2021/03/02 03:47:36;;;;;;;41.42;22.25;;;;;;;-1.65;85.45;98052.53;5057507;28;20090;-66
2021/03/02 03:50:04;;;;;;;45.40;21.33;;;;;;;-1.51;85.02;98056.25;5034330;28;20045;-66
2021/03/02 03:52:31;;;;;;;47.50;22.88;;;;;;;-1.51;85.40;98044.31;5037441;28;20203;-66
2021/03/02 03:55:00;;;;;;;42.45;21.88;;;;;;;-1.73;84.01;98039.22;5040452;28;20060;-66
2021/03/02 03:57:26;;;;;;;34.50;19.35;;;;;;;-1.61;82.98;98053.22;5056114;28;20048;-67
2021/03/02 03:59:53;;;;;;;48.38;24.40;;;;;;;-1.99;85.21;98050.44;5057168;28;20514;-66
2021/03/02 04:02:21;;;;;;;37.50;19.58;;;;;;;-1.81;84.87;98042.97;5056606;28;20048;-67
2021/03/02 04:04:48;;;;;;;43.58;21.23;;;;;;;-1.80;85.47;98042.06;5038983;28;20447;-67
2021/03/02 04:07:15;;;;;;;53.67;25.30;;;;;;;-1.89;85.77;98038.97;5058353;28;20033;-67
2021/03/02 04:09:42;;;;;;;54.38;24.52;;;;;;;-2.08;84.90;98038.00;5036381;28;20048;-66
2021/03/02 04:12:10;;;;;;;45.35;22.17;;;;;;;-1.96;84.30;98052.03;5040282;28;20049;-67
2021/03/02 04:14:36;;;;;;;45.10;22.45;;;;;;;-2.14;85.81;98058.63;5055494;28;20079;-67
2021/03/02 04:17:05;;;;;;;51.65;24.70;;;;;;;-1.96;85.23;98055.41;5052169;28;20036;-66
2021/03/02 04:19:31;;;;;;;49.50;21.80;;;;;;;-1.95;85.17;98051.94;5056674;28;20110;-66
2021/03/02 04:21:57;;;;;;;47.58;22.13;;;;;;;-2.05;84.65;98043.00;5052726;28;20587;-67
2021/03/02 04:24:23;;;;;;;42.72;19.50;;;;;;;-2.04;83.53;98059.94;5016330;28;20044;-67
2021/03/02 04:26:49;;;;;;;58.95;25.80;;;;;;;-2.41;85.03;98066.38;5036459;28;20044;-67
2021/03/02 04:29:15;;;;;;;49.90;23.77;;;;;;;-2.24;85.25;98050.50;5053545;28;20056;-66
2021/03/02 04:31:41;;;;;;;54.92;24.90;;;;;;;-2.39;85.08;98059.50;5054103;28;20063;-67
2021/03/02 04:34:07;;;;;;;53.55;24.58;;;;;;;-2.22;84.61;98060.63;5034417;28;20052;-67
2021/03/02 04:36:34;;;;;;;58.42;24.02;;;;;;;-2.22;84.54;98066.56;5055164;28;20251;-66
2021/03/02 04:39:01;;;;;;;62.80;26.38;;;;;;;-2.49;85.30;98060.72;5019164;28;20053;-67
2021/03/02 04:41:27;;;;;;;47.55;23.38;;;;;;;-2.18;87.03;98055.38;5056463;28;20044;-67
2021/03/02 04:43:53;;;;;;;50.92;24.77;;;;;;;-2.03;86.15;98071.84;5055057;28;20041;-67
2021/03/02 04:46:19;;;;;;;54.00;26.30;;;;;;;-2.05;85.33;98073.63;5053907;28;20328;-67
2021/03/02 04:48:47;;;;;;;45.15;21.23;;;;;;;-2.22;83.08;98065.72;5037054;28;20036;-67
2021/03/02 04:51:15;;;;;;;51.58;22.52;;;;;;;-2.45;83.67;98072.47;5039441;28;20036;-67
2021/03/02 04:53:41;;;;;;;55.28;27.02;;;;;;;-2.61;85.12;98073.88;5054503;28;20512;-67
2021/03/02 04:56:07;;;;;;;50.53;23.52;;;;;;;-2.38;85.90;98081.56;5055581;28;20389;-67
2021/03/02 04:58:33;;;;;;;53.53;25.15;;;;;;;-2.46;85.58;98070.81;5054658;28;20047;-67
2021/03/02 05:00:59;;;;;;;49.67;24.40;;;;;;;-2.26;85.58;98078.59;5053024;28;20056;-67
2021/03/02 05:03:25;;;;;;;45.03;21.75;;;;;;;-2.11;83.70;98063.63;5060261;28;20044;-67
2021/03/02 05:05:52;;;;;;;42.95;22.35;;;;;;;-2.43;83.76;98080.91;5055613;28;20245;-66
2021/03/02 05:08:18;;;;;;;56.40;27.80;;;;;;;-2.31;85.77;98082.19;5039912;28;20048;-67
2021/03/02 05:10:44;;;;;;;44.88;22.63;;;;;;;-2.37;84.16;98084.94;5039022;28;20508;-67
2021/03/02 05:13:10;;;;;;;54.50;22.40;;;;;;;-2.49;84.45;98078.56;5038350;28;20074;-67
2021/03/02 05:15:36;;;;;;;57.05;26.17;;;;;;;-2.32;84.20;98086.47;5050771;28;20037;-67
2021/03/02 05:18:03;;;;;;;54.13;26.27;;;;;;;-2.30;83.86;98084.69;5055976;28;20044;-67
2021/03/02 05:20:30;;;;;;;52.47;27.88;;;;;;;-2.52;85.68;98083.75;5059502;28;20050;-67
2021/03/02 05:22:56;;;;;;;56.45;26.23;;;;;;;-2.44;84.93;98076.69;5057442;28;20059;-67
2021/03/02 05:25:22;;;;;;;56.70;27.83;;;;;;;-2.67;84.75;98068.13;5035310;28;20300;-66
2021/03/02 05:27:48;;;;;;;57.55;27.92;;;;;;;-2.64;85.65;98074.84;5056680;28;20115;-66
2021/03/02 05:30:15;;;;;;;55.15;28.05;;;;;;;-2.55;84.75;98076.22;5056003;28;20037;-67
2021/03/02 05:32:41;;;;;;;56.95;27.98;;;;;;;-2.42;84.54;98087.66;5048276;28;20493;-67
2021/03/02 05:35:08;;;;;;;63.95;30.55;;;;;;;-2.43;86.61;98083.47;5055875;28;20447;-67
2021/03/02 05:37:34;;;;;;;51.03;26.92;;;;;;;-2.33;84.38;98086.50;5056156;28;20539;-65
2021/03/02 05:40:00;;;;;;;54.75;28.05;;;;;;;-2.57;86.08;98071.19;5054861;28;20048;-67
2021/03/02 05:42:27;;;;;;;58.75;27.58;;;;;;;-2.64;84.78;98089.31;5053076;28;20091;-66
2021/03/02 05:44:53;;;;;;;57.30;28.15;;;;;;;-2.75;84.50;98087.94;5054392;28;20219;-68
2021/03/02 05:47:21;;;;;;;72.82;30.20;;;;;;;-2.62;85.00;98088.34;5052695;28;20136;-67
2021/03/02 05:49:48;;;;;;;56.50;27.05;;;;;;;-2.48;84.56;98077.66;5045289;28;20443;-68
2021/03/02 05:52:14;;;;;;;56.70;28.75;;;;;;;-2.49;83.96;98093.88;5057309;28;20507;-68
2021/03/02 05:54:41;;;;;;;55.38;29.10;;;;;;;-2.45;85.41;98087.78;5053345;28;20432;-68
2021/03/02 05:57:07;;;;;;;52.28;26.10;;;;;;;-2.59;83.87;98082.31;5053898;28;20044;-68
2021/03/02 05:59:33;;;;;;;63.40;27.50;;;;;;;-2.63;84.30;98083.31;5052828;28;20049;-68
2021/03/02 06:02:00;;;;;;;45.55;25.33;;;;;;;-2.48;84.27;98085.31;5057438;28;20068;-66
2021/03/02 06:04:27;;;;;;;59.45;26.70;;;;;;;-2.57;84.88;98083.09;5054554;28;20523;-66
2021/03/02 06:07:03;;;;;;;58.92;29.00;;;;;;;-2.41;84.02;98086.78;5024579;28;20049;-66
2021/03/02 06:09:30;;;;;;;55.08;25.73;;;;;;;-2.25;83.11;98097.28;5059459;28;20049;-67
2021/03/02 06:12:06;;;;;;;51.90;26.92;;;;;;;-2.35;83.73;98093.38;5059112;28;20045;-67
2021/03/02 06:14:36;;;;;;;54.45;27.35;;;;;;;-2.48;83.87;98104.03;5041223;28;20045;-66
2021/03/02 06:17:04;;;;;;;52.35;26.85;;;;;;;-2.37;84.00;98100.25;5053354;28;20883;-66
2021/03/02 06:19:44;;;;;;;59.83;28.77;;;;;;;-2.28;83.91;98113.53;5055734;28;20058;-69
2021/03/02 06:22:35;;;;;;;51.63;24.90;;;;;;;-1.93;83.69;98108.88;5059542;28;20083;-69
2021/03/02 06:25:30;;;;;;;46.15;23.65;;;;;;;-1.86;83.35;98110.34;5052980;28;20067;-69
2021/03/02 06:27:56;;;;;;;46.35;24.25;;;;;;;-2.12;84.46;98115.53;5040559;28;20147;-69
2021/03/02 06:30:23;;;;;;;52.20;23.55;;;;;;;-1.86;83.51;98120.53;5057489;28;20052;-69
2021/03/02 06:32:56;;;;;;;46.55;24.77;;;;;;;-1.55;81.56;98126.22;5054852;28;20037;-69
2021/03/02 06:35:30;;;;;;;55.65;25.40;;;;;;;-1.53;81.22;98122.72;5050525;28;20041;-69
2021/03/02 06:37:56;;;;;;;53.47;26.83;;;;;;;-1.57;82.14;98126.28;5064523;28;20596;-68
2021/03/02 06:40:43;;;;;;;44.85;24.80;;;;;;;-1.34;81.45;98137.34;5045858;28;20059;-68
2021/03/02 06:43:38;;;;;;;48.97;27.13;;;;;;;-1.42;81.58;98136.81;5057955;28;20040;-69
2021/03/02 06:46:06;;;;;;;52.75;27.20;;;;;;;-1.05;81.50;98139.63;5042706;28;20063;-67
2021/03/02 06:48:57;;;;;;;56.28;32.05;;;;;;;-0.93;80.54;98142.56;5042844;28;20284;-67
2021/03/02 06:51:34;;;;;;;62.08;33.50;;;;;;;-0.58;80.58;98148.81;5060362;28;20040;-68
2021/03/02 06:54:11;;;;;;;66.40;35.28;;;;;;;-0.50;80.32;98141.66;5038842;28;20067;-68
2021/03/02 06:56:39;;;;;;;75.10;39.17;;;;;;;-0.54;80.23;98144.41;5059455;28;20051;-68
2021/03/02 06:59:17;;;;;;;70.93;35.05;;;;;;;-0.27;80.52;98143.25;5062294;28;20072;-68
2021/03/02 07:01:45;;;;;;;65.00;35.72;;;;;;;-0.14;79.74;98137.63;5042075;28;20500;-68
2021/03/02 07:04:13;;;;;;;53.20;31.05;;;;;;;0.03;79.27;98150.53;5058670;28;20119;-68
2021/03/02 07:06:42;;;;;;;56.85;29.10;;;;;;;0.39;79.43;98134.44;5059341;28;20044;-69
2021/03/02 07:09:10;;;;;;;49.83;27.50;;;;;;;0.40;79.41;98141.19;5042863;28;20044;-68
2021/03/02 07:11:38;;;;;;;51.50;28.73;;;;;;;0.35;79.33;98141.41;5057340;28;20063;-68
2021/03/02 07:14:08;;;;;;;57.47;29.27;;;;;;;0.87;80.21;98137.34;5058948;28;20484;-68
2021/03/02 07:16:43;;;;;;;56.95;31.30;;;;;;;1.23;79.13;98150.19;5058265;28;20082;-68
2021/03/02 07:19:19;;;;;;;56.72;32.40;;;;;;;1.43;78.14;98141.50;5055705;28;20104;-68
2021/03/02 07:21:54;;;;;;;64.68;33.28;;;;;;;1.85;77.98;98147.97;5056047;28;20037;-68
2021/03/02 07:24:26;;;;;;;55.67;31.33;;;;;;;2.11;76.73;98148.38;5037060;28;20052;-68
2021/03/02 07:26:57;;;;;;;62.58;33.22;;;;;;;1.98;78.26;98151.56;5061313;28;20185;-67
2021/03/02 07:29:23;;;;;;;54.75;31.73;;;;;;;2.26;76.70;98144.16;5057977;28;20060;-68
2021/03/02 07:31:49;;;;;;;50.22;28.33;;;;;;;2.68;75.83;98150.50;5027260;28;20139;-68
2021/03/02 07:34:16;;;;;;;53.25;26.48;;;;;;;2.79;73.97;98161.03;5040927;28;20692;-68
2021/03/02 07:36:43;;;;;;;49.40;28.25;;;;;;;2.83;75.52;98160.78;5057414;28;20108;-68
2021/03/02 07:39:20;;;;;;;46.17;24.45;;;;;;;3.13;73.26;98165.16;5058528;28;20056;-68
2021/03/02 07:41:48;;;;;;;42.10;23.70;;;;;;;3.25;73.95;98169.63;5061284;28;20055;-68
2021/03/02 07:44:15;;;;;;;48.80;27.10;;;;;;;3.54;73.59;98168.91;5061701;28;20044;-68
2021/03/02 07:46:43;;;;;;;42.83;25.30;;;;;;;3.63;71.99;98174.34;5058661;28;20033;-69
2021/03/02 07:49:23;;;;;;;39.70;22.40;;;;;;;3.98;70.40;98178.34;5056798;28;20033;-68
2021/03/02 07:51:58;;;;;;;37.22;21.40;;;;;;;4.54;71.23;98176.69;5052160;28;20162;-68
2021/03/02 07:54:24;;;;;;;39.85;21.90;;;;;;;4.73;69.53;98173.00;5045497;28;20048;-68
2021/03/02 07:57:13;;;;;;;36.17;21.67;;;;;;;4.86;67.22;98176.47;5050909;28;20120;-68
2021/03/02 07:59:39;;;;;;;35.25;21.20;;;;;;;5.23;66.19;98172.41;5053791;28;20447;-68
2021/03/02 08:02:19;;;;;;;37.65;23.38;;;;;;;5.71;66.73;98184.78;5059271;28;20044;-68
2021/03/02 08:04:50;;;;;;;32.10;21.48;;;;;;;5.83;64.20;98185.75;5055146;28;20051;-68
2021/03/02 08:07:27;;;;;;;34.00;22.27;;;;;;;6.33;63.43;98189.31;5057219;28;20040;-68
2021/03/02 08:09:58;;;;;;;35.00;21.33;;;;;;;5.25;66.69;98183.44;5057445;28;20045;-66
2021/03/02 08:12:34;;;;;;;34.75;22.27;;;;;;;5.43;67.15;98180.59;5065069;28;20083;-66
2021/03/02 08:15:21;;;;;;;36.20;21.40;;;;;;;5.71;65.05;98184.78;5056431;28;20102;-67
2021/03/02 08:17:48;;;;;;;31.73;20.08;;;;;;;6.46;63.20;98195.31;5055180;28;20526;-68
2021/03/02 08:20:15;;;;;;;29.67;20.17;;;;;;;6.96;62.27;98179.75;5043753;28;20063;-66
2021/03/02 08:22:42;;;;;;;29.63;18.63;;;;;;;7.01;62.05;98184.63;5056872;28;20041;-69
2021/03/02 08:25:27;;;;;;;30.83;19.98;;;;;;;7.32;63.16;98180.66;5058030;28;20076;-54
2021/03/02 08:28:01;;;;;;;30.35;18.42;;;;;;;7.24;59.71;98173.44;5041971;28;20055;-66
2021/03/02 08:30:28;;;;;;;28.90;20.23;;;;;;;6.95;60.75;98174.72;5061207;28;20053;-66
2021/03/02 08:32:57;;;;;;;26.88;18.58;;;;;;;7.14;59.70;98188.81;5056428;28;20059;-66
2021/03/02 08:35:31;;;;;;;26.67;18.45;;;;;;;8.03;58.61;98188.44;5063019;28;20056;-66
2021/03/02 08:37:59;;;;;;;27.25;18.88;;;;;;;7.33;58.08;98187.50;5059694;28;20120;-68
2021/03/02 08:40:31;;;;;;;27.90;18.92;;;;;;;7.51;57.41;98186.16;5043543;28;20040;-68
2021/03/02 08:43:07;;;;;;;27.33;18.77;;;;;;;7.40;57.74;98191.28;5063190;28;20040;-66
2021/03/02 08:45:43;;;;;;;28.02;18.92;;;;;;;7.88;57.17;98188.63;5058124;28;20048;-66
2021/03/02 08:48:15;;;;;;;28.45;19.17;;;;;;;7.16;59.03;98185.31;5035889;28;20522;-67
2021/03/02 08:50:43;;;;;;;23.90;17.63;;;;;;;7.68;59.48;98184.09;5057072;28;20044;-66
2021/03/02 08:53:32;;;;;;;25.42;19.02;;;;;;;9.33;54.78;98187.88;5055821;28;20048;-66
2021/03/02 08:56:00;;;;;;;24.38;17.45;;;;;;;9.47;53.14;98184.97;5033385;28;20389;-66
2021/03/02 08:58:33;;;;;;;28.50;17.52;;;;;;;9.52;54.12;98180.22;5056403;28;20067;-66
2021/03/02 09:01:10;;;;;;;24.48;17.20;;;;;;;9.81;54.41;98186.59;5054712;28;20049;-66
2021/03/02 09:03:39;;;;;;;26.50;17.10;;;;;;;10.72;52.00;98179.84;5054708;28;20496;-66
2021/03/02 09:06:26;;;;;;;19.50;16.13;;;;;;;10.98;48.39;98188.81;5054359;28;20072;-66
2021/03/02 09:08:53;;;;;;;20.90;16.10;;;;;;;10.62;50.31;98184.19;5054321;28;20056;-66
2021/03/02 09:11:26;;;;;;;23.35;18.27;;;;;;;11.52;48.14;98175.44;5034741;28;20127;-66
2021/03/02 09:13:54;;;;;;;24.25;17.00;;;;;;;12.77;45.18;98173.47;5056587;28;20051;-66
2021/03/02 09:16:33;;;;;;;23.00;17.45;;;;;;;17.71;36.22;98174.31;5052973;28;20055;-66
2021/03/02 09:19:07;;;;;;;24.30;18.33;;;;;;;18.94;34.17;98177.53;5054652;28;20522;-66
2021/03/02 09:21:35;;;;;;;18.75;14.95;;;;;;;19.98;31.87;98170.06;5051507;28;20040;-66
2021/03/02 09:24:03;;;;;;;20.45;15.85;;;;;;;19.81;30.79;98163.38;5053518;28;20040;-66
2021/03/02 09:26:30;;;;;;;20.27;15.43;;;;;;;21.04;29.93;98172.47;5055325;28;20044;-66
2021/03/02 09:29:02;;;;;;;24.65;18.92;;;;;;;21.08;29.13;98172.88;5050675;28;20045;-66
2021/03/02 09:31:29;;;;;;;19.50;14.05;;;;;;;22.25;27.37;98173.44;5054487;28;20047;-66
2021/03/02 09:33:56;;;;;;;18.33;14.88;;;;;;;21.61;28.62;98173.03;5049949;28;20540;-66
2021/03/02 09:36:28;;;;;;;24.95;15.25;;;;;;;22.40;27.60;98183.81;5049792;28;20068;-66
2021/03/02 09:38:56;;;;;;;18.17;15.45;;;;;;;22.59;28.64;98166.22;5059442;28;20049;-67
2021/03/02 09:41:30;;;;;;;21.33;15.15;;;;;;;19.89;29.56;98187.03;5056108;28;20044;-67
2021/03/02 09:44:14;;;;;;;20.25;15.43;;;;;;;22.03;28.34;98173.63;5056842;28;20044;-66
2021/03/02 09:46:41;;;;;;;20.48;16.50;;;;;;;23.12;28.40;98176.66;5053478;28;20544;-53
2021/03/02 09:49:40;;;;;;;18.45;15.20;;;;;;;22.26;27.75;98178.53;5055866;28;20074;-53
2021/03/02 09:52:21;;;;;;;18.45;15.20;;;;;;;23.02;26.28;98176.28;5055119;28;20040;-66
2021/03/02 09:55:10;;;;;;;19.27;15.15;;;;;;;24.81;24.12;98181.19;5040626;28;20053;-66
2021/03/02 09:58:01;;;;;;;24.05;14.25;;;;;;;24.89;23.68;98181.72;5055318;28;20052;-66
2021/03/02 10:00:32;;;;;;;21.40;14.25;;;;;;;26.58;21.76;98180.56;5044415;28;20033;-66
2021/03/02 10:03:11;;;;;;;21.42;16.90;;;;;;;25.46;24.66;98183.22;5056478;28;20036;-66
2021/03/02 10:05:53;;;;;;;15.90;13.25;;;;;;;27.38;21.51;98183.47;5051931;28;20595;-66
2021/03/02 10:08:25;;;;;;;19.20;14.80;;;;;;;26.12;22.78;98189.38;5052957;28;20344;-66
2021/03/02 10:10:54;;;;;;;14.43;12.93;;;;;;;26.90;22.17;98190.03;5056516;28;20049;-66
2021/03/02 10:13:35;;;;;;;17.23;14.30;;;;;;;27.46;22.03;98190.31;5053460;28;20058;-66
2021/03/02 10:16:35;;;;;;;17.10;13.70;;;;;;;27.14;21.80;98190.78;5055402;28;20045;-66
2021/03/02 10:19:14;;;;;;;19.00;13.57;;;;;;;26.57;21.79;98192.31;5039276;28;20708;-66
2021/03/02 10:21:42;;;;;;;17.40;14.75;;;;;;;25.98;21.93;98191.50;5042944;28;20128;-66
2021/03/02 10:24:08;;;;;;;16.20;13.35;;;;;;;25.78;22.31;98183.75;5058620;28;20399;-66
2021/03/02 10:26:37;;;;;;;14.93;12.82;;;;;;;28.00;21.46;98190.69;5055188;28;20075;-66
2021/03/02 10:29:06;;;;;;;15.90;13.90;;;;;;;26.83;22.00;98184.00;5042391;28;20129;-66
2021/03/02 10:31:34;;;;;;;19.48;13.73;;;;;;;26.17;21.81;98190.34;5037573;28;20063;-66
2021/03/02 10:34:01;;;;;;;18.38;14.63;;;;;;;25.12;22.88;98196.19;5039663;28;20037;-66
2021/03/02 10:36:34;;;;;;;19.67;13.88;;;;;;;26.47;21.67;98184.03;5035904;28;20106;-66
2021/03/02 10:39:06;;;;;;;16.05;13.10;;;;;;;28.68;19.78;98183.38;5058967;28;20429;-66
2021/03/02 10:41:32;;;;;;;16.58;13.45;;;;;;;26.83;21.34;98189.34;5056740;28;20040;-66
2021/03/02 10:43:58;;;;;;;21.87;15.03;;;;;;;26.86;21.80;98184.38;5037361;28;20129;-66
2021/03/02 10:46:27;;;;;;;16.30;13.68;;;;;;;27.41;20.90;98188.34;5061383;28;20055;-66
2021/03/02 10:48:55;;;;;;;20.48;14.73;;;;;;;29.37;19.20;98188.16;5042652;28;20067;-66
2021/03/02 10:51:22;;;;;;;16.52;13.15;;;;;;;28.49;20.43;98174.81;5044361;28;20646;-66
2021/03/02 10:53:48;;;;;;;17.15;14.38;;;;;;;29.70;18.79;98172.94;5060530;28;20056;-66
2021/03/02 10:56:16;;;;;;;15.88;13.07;;;;;;;28.62;20.09;98185.16;5062703;28;20039;-66
2021/03/02 10:58:43;;;;;;;16.50;13.48;;;;;;;30.03;20.31;98166.47;5056948;28;20745;-66
2021/03/02 11:01:09;;;;;;;16.45;13.32;;;;;;;31.15;17.19;98181.53;5059236;28;20048;-66
2021/03/02 11:03:35;;;;;;;17.70;14.13;;;;;;;29.57;18.71;98176.00;5061266;28;20052;-66
2021/03/02 11:06:04;;;;;;;14.98;13.25;;;;;;;31.29;17.76;98165.72;5054804;28;20075;-66
2021/03/02 11:08:30;;;;;;;14.60;13.17;;;;;;;28.57;19.68;98170.88;5062355;28;20056;-66
2021/03/02 11:10:56;;;;;;;15.90;13.02;;;;;;;30.99;17.81;98161.88;5058565;28;20055;-66
2021/03/02 11:13:22;;;;;;;15.57;13.00;;;;;;;31.71;17.59;98159.31;5059687;28;20132;-66
2021/03/02 11:15:48;;;;;;;18.35;12.73;;;;;;;32.69;16.63;98156.44;5060388;28;20523;-66
2021/03/02 11:18:15;;;;;;;15.73;13.63;;;;;;;31.17;18.17;98151.69;5056606;28;20068;-66
2021/03/02 11:20:45;;;;;;;14.98;12.70;;;;;;;33.56;17.14;98153.25;5037464;28;20057;-66
2021/03/02 11:23:13;;;;;;;21.25;12.63;;;;;;;32.92;16.91;98152.28;5053266;28;20049;-66
2021/03/02 11:25:39;;;;;;;19.25;12.88;;;;;;;30.33;19.19;98146.28;5058964;28;20037;-65
2021/03/02 11:28:10;;;;;;;15.00;13.40;;;;;;;31.92;18.72;98143.13;5039654;28;20037;-66
2021/03/02 11:30:37;;;;;;;14.88;12.55;;;;;;;32.31;16.67;98148.72;5060201;28;20496;-66
2021/03/02 11:33:04;;;;;;;14.02;12.55;;;;;;;31.02;18.37;98137.13;5050062;28;20041;-66
2021/03/02 11:35:31;;;;;;;13.48;12.07;;;;;;;32.03;17.87;98142.88;5058187;28;20062;-65